METAR Data

Data at: 1200 UTC 21 Apr 2021

METAR for:KHYA (Hyannis/Barnstable M, MA, US)
Text:KHYA 211156Z 19007KT 10SM CLR 13/09 A2984 RMK AO2 SLP106 T01280094 10128 20072 58014
Temperature: 12.8°C ( 55°F)
Dewpoint: 9.4°C ( 49°F) [RH = 80%]
Pressure (altimeter):29.84 inches Hg (1010.6 mb) [Sea level pressure: 1010.6 mb]
Winds:from the S (190 degrees) at 8 MPH (7 knots; 3.6 m/s)
Visibility:10 or more sm (16+ km)
Ceiling:at least 12,000 feet AGL
Clouds:sky clear below 12,000 feet AGL